createdAt,value
2023-01-08T00:00:20.611Z,45.46
2023-01-08T00:01:20.554Z,45.72
2023-01-08T00:02:20.535Z,45.34
2023-01-08T00:03:20.601Z,46.03
2023-01-08T00:04:20.524Z,45.57
2023-01-08T00:05:20.664Z,44.21
2023-01-08T00:06:20.508Z,50.67
2023-01-08T00:07:20.509Z,48.18
2023-01-08T00:08:20.500Z,44.62
2023-01-08T00:09:20.603Z,43.42
2023-01-08T00:10:20.518Z,47.50
2023-01-08T00:11:20.475Z,41.48
2023-01-08T00:12:20.470Z,49.11
2023-01-08T00:13:20.461Z,53.64
2023-01-08T00:14:20.501Z,46.40
2023-01-08T00:15:20.452Z,44.33
2023-01-08T00:16:20.540Z,44.81
2023-01-08T00:17:20.435Z,47.17
2023-01-08T00:18:20.501Z,46.76
2023-01-08T00:19:20.419Z,45.85
2023-01-08T00:20:20.434Z,45.03
2023-01-08T00:21:20.400Z,48.28
2023-01-08T00:22:20.553Z,49.38
2023-01-08T00:23:20.388Z,42.96
2023-01-08T00:24:20.374Z,43.43
2023-01-08T00:25:20.467Z,41.35
2023-01-08T00:26:20.350Z,44.42
2023-01-08T00:27:20.372Z,47.61
2023-01-08T00:28:20.343Z,44.33
2023-01-08T00:29:20.323Z,46.76
2023-01-08T00:30:20.356Z,42.50
2023-01-08T00:31:20.378Z,42.74
2023-01-08T00:32:20.371Z,51.22
2023-01-08T00:33:20.346Z,54.80
2023-01-08T00:34:20.295Z,46.40
2023-01-08T00:35:20.320Z,46.38
2023-01-08T00:36:20.305Z,47.89
2023-01-08T00:37:20.277Z,46.21
2023-01-08T00:38:20.271Z,41.03
2023-01-08T00:39:20.259Z,43.93
2023-01-08T00:40:20.271Z,45.67
2023-01-08T00:41:20.384Z,44.48
2023-01-08T00:42:20.235Z,43.96
2023-01-08T00:43:20.217Z,45.57
2023-01-08T00:44:20.214Z,49.04
2023-01-08T00:45:20.236Z,46.44
2023-01-08T00:46:20.297Z,46.15
2023-01-08T00:47:20.227Z,45.83
2023-01-08T00:48:20.233Z,46.36
2023-01-08T00:49:20.176Z,43.20
2023-01-08T00:50:20.200Z,40.55
2023-01-08T00:51:20.166Z,44.65
2023-01-08T00:52:20.158Z,47.25
2023-01-08T00:53:20.135Z,41.04
2023-01-08T00:54:20.138Z,44.97
2023-01-08T00:55:20.146Z,45.74
2023-01-08T00:56:20.139Z,48.49
2023-01-08T00:57:20.200Z,48.44
2023-01-08T00:58:20.103Z,40.77
2023-01-08T00:59:20.105Z,43.64
2023-01-08T01:00:20.115Z,45.12
2023-01-08T01:01:20.165Z,44.90
2023-01-08T01:02:20.133Z,44.54
2023-01-08T01:03:20.079Z,42.94
2023-01-08T01:04:20.110Z,40.76
2023-01-08T01:05:20.076Z,40.67
2023-01-08T01:06:20.087Z,43.10
2023-01-08T01:07:20.053Z,41.41
2023-01-08T01:08:20.021Z,42.18
2023-01-08T01:09:20.022Z,56.40
2023-01-08T01:10:20.038Z,47.10
2023-01-08T01:11:20.010Z,42.70
2023-01-08T01:12:20.005Z,40.85
2023-01-08T01:13:20.060Z,43.43
2023-01-08T01:14:19.984Z,49.81
2023-01-08T01:15:19.969Z,45.44
2023-01-08T01:16:20.037Z,47.79
2023-01-08T01:17:19.968Z,41.91
2023-01-08T01:18:19.944Z,47.52
2023-01-08T01:19:19.938Z,45.10
2023-01-08T01:20:19.937Z,42.45
2023-01-08T01:21:19.941Z,41.00
2023-01-08T01:22:19.918Z,48.83
2023-01-08T01:23:19.919Z,43.38
2023-01-08T01:24:19.909Z,43.60
2023-01-08T01:25:19.888Z,53.31
2023-01-08T01:26:19.964Z,48.11
2023-01-08T01:27:19.864Z,42.24
2023-01-08T01:28:19.856Z,44.47
2023-01-08T01:29:19.935Z,42.89
2023-01-08T01:30:20.084Z,49.51
2023-01-08T01:31:19.887Z,42.69
2023-01-08T01:32:19.833Z,41.07
2023-01-08T01:33:19.827Z,44.23
2023-01-08T01:34:19.835Z,56.06
2023-01-08T01:35:19.807Z,41.89
2023-01-08T01:36:19.825Z,44.50
2023-01-08T01:37:19.800Z,41.22
2023-01-08T01:38:19.781Z,46.53
2023-01-08T01:39:19.803Z,41.53
2023-01-08T01:40:19.776Z,43.51
2023-01-08T01:41:19.787Z,50.18
2023-01-08T01:42:19.762Z,41.56
2023-01-08T01:43:19.750Z,43.02
2023-01-08T01:44:19.821Z,41.56
2023-01-08T01:45:19.736Z,43.19
2023-01-08T01:46:19.803Z,41.22
2023-01-08T01:47:19.715Z,43.19
2023-01-08T01:48:19.701Z,45.20
2023-01-08T01:49:19.705Z,43.53
2023-01-08T01:50:19.681Z,43.37
2023-01-08T01:51:19.720Z,43.07
2023-01-08T01:52:19.673Z,41.13
2023-01-08T01:53:19.658Z,41.01
2023-01-08T01:54:19.658Z,40.95
2023-01-08T01:55:19.651Z,43.56
2023-01-08T01:56:19.631Z,42.07
2023-01-08T01:57:19.683Z,40.92
2023-01-08T01:58:19.617Z,41.03
2023-01-08T01:59:19.615Z,42.88
2023-01-08T02:00:19.618Z,43.49
2023-01-08T02:01:19.744Z,45.59
2023-01-08T02:02:22.070Z,45.81
2023-01-08T02:03:20.581Z,41.12
2023-01-08T02:04:19.640Z,47.58
2023-01-08T02:05:19.562Z,55.00
2023-01-08T02:06:19.567Z,42.11
2023-01-08T02:07:19.582Z,46.14
2023-01-08T02:08:19.537Z,45.69
2023-01-08T02:09:19.538Z,40.94
2023-01-08T02:10:19.536Z,40.93
2023-01-08T02:11:19.519Z,43.32
2023-01-08T02:12:19.551Z,41.03
2023-01-08T02:13:19.515Z,40.92
2023-01-08T02:14:19.504Z,42.93
2023-01-08T02:15:19.498Z,41.17
2023-01-08T02:16:19.535Z,41.13
2023-01-08T02:17:19.582Z,43.18
2023-01-08T02:18:19.479Z,43.51
2023-01-08T02:19:19.471Z,43.59
2023-01-08T02:20:19.460Z,42.40
2023-01-08T02:21:19.454Z,58.72
2023-01-08T02:22:19.467Z,44.54
2023-01-08T02:23:19.436Z,42.53
2023-01-08T02:24:19.431Z,45.46
2023-01-08T02:25:19.434Z,41.29
2023-01-08T02:26:19.431Z,43.80
2023-01-08T02:27:19.437Z,44.00
2023-01-08T02:28:19.402Z,44.44
2023-01-08T02:29:19.400Z,42.51
2023-01-08T02:30:19.398Z,45.47
2023-01-08T02:31:19.508Z,49.87
2023-01-08T02:32:19.392Z,41.28
2023-01-08T02:33:19.363Z,45.42
2023-01-08T02:34:19.365Z,46.21
2023-01-08T02:35:19.358Z,45.39
2023-01-08T02:36:19.350Z,41.46
2023-01-08T02:37:19.361Z,40.95
2023-01-08T02:38:19.331Z,45.39
2023-01-08T02:39:19.409Z,43.77
2023-01-08T02:40:19.299Z,43.32
2023-01-08T02:41:19.292Z,42.62
2023-01-08T02:42:19.316Z,42.98
2023-01-08T02:43:19.281Z,49.05
2023-01-08T02:44:19.285Z,43.27
2023-01-08T02:45:19.268Z,44.94
2023-01-08T02:46:19.316Z,42.74
2023-01-08T02:47:19.276Z,43.93
2023-01-08T02:48:19.255Z,44.23
2023-01-08T02:49:19.344Z,45.15
2023-01-08T02:50:19.232Z,46.99
2023-01-08T02:51:19.228Z,42.02
2023-01-08T02:52:19.240Z,43.26
2023-01-08T02:53:19.206Z,41.37
2023-01-08T02:54:19.212Z,40.78
2023-01-08T02:55:19.194Z,40.83
2023-01-08T02:56:19.183Z,42.47
2023-01-08T02:57:19.209Z,40.83
2023-01-08T02:58:19.165Z,41.24
2023-01-08T02:59:19.265Z,48.07
2023-01-08T03:00:19.160Z,51.36
2023-01-08T03:01:19.229Z,44.74
2023-01-08T03:02:19.275Z,43.66
2023-01-08T03:03:19.132Z,46.07
2023-01-08T03:04:19.212Z,40.94
2023-01-08T03:05:19.193Z,41.04
2023-01-08T03:06:19.130Z,44.41
2023-01-08T03:07:19.127Z,41.04
2023-01-08T03:08:19.098Z,40.95
2023-01-08T03:09:19.088Z,40.97
2023-01-08T03:10:19.083Z,40.99
2023-01-08T03:11:19.081Z,40.85
2023-01-08T03:12:19.102Z,41.09
2023-01-08T03:13:19.056Z,52.10
2023-01-08T03:14:19.033Z,49.71
2023-01-08T03:15:20.036Z,41.21
2023-01-08T03:16:19.105Z,43.98
2023-01-08T03:17:19.064Z,46.27
2023-01-08T03:18:19.030Z,41.04
2023-01-08T03:19:19.028Z,45.60
2023-01-08T03:20:19.011Z,41.07
2023-01-08T03:21:19.069Z,43.88
2023-01-08T03:22:18.982Z,43.00
2023-01-08T03:23:19.081Z,41.05
2023-01-08T03:24:18.977Z,41.26
2023-01-08T03:25:18.971Z,43.09
2023-01-08T03:26:18.968Z,43.03
2023-01-08T03:27:18.960Z,40.88
2023-01-08T03:28:18.971Z,41.05
2023-01-08T03:29:18.974Z,43.72
2023-01-08T03:30:18.937Z,43.89
2023-01-08T03:31:18.939Z,41.22
2023-01-08T03:32:18.909Z,45.32
2023-01-08T03:33:18.935Z,45.32
2023-01-08T03:34:18.898Z,42.26
2023-01-08T03:35:18.887Z,41.96
2023-01-08T03:36:18.879Z,41.02
2023-01-08T03:37:18.950Z,41.06
2023-01-08T03:38:18.897Z,43.70
2023-01-08T03:39:18.910Z,42.36
2023-01-08T03:40:18.852Z,41.31
2023-01-08T03:41:18.846Z,43.90
2023-01-08T03:42:18.834Z,43.35
2023-01-08T03:43:18.850Z,46.24
2023-01-08T03:44:18.824Z,44.74
2023-01-08T03:45:19.832Z,41.34
2023-01-08T03:46:18.876Z,40.81
2023-01-08T03:47:18.799Z,40.96
2023-01-08T03:48:18.812Z,48.98
2023-01-08T03:49:18.790Z,41.51
2023-01-08T03:50:18.771Z,53.89
2023-01-08T03:51:18.772Z,46.96
2023-01-08T03:52:18.765Z,41.43
2023-01-08T03:53:18.844Z,44.41
2023-01-08T03:54:19.815Z,53.92
2023-01-08T03:55:18.753Z,43.05
2023-01-08T03:56:18.746Z,46.24
2023-01-08T03:57:18.716Z,47.79
2023-01-08T03:58:18.742Z,43.39
2023-01-08T03:59:18.731Z,45.36
2023-01-08T04:00:18.694Z,42.32
2023-01-08T04:01:18.801Z,42.25
2023-01-08T04:02:18.786Z,41.17
2023-01-08T04:03:18.667Z,46.58
2023-01-08T04:04:18.751Z,41.67
2023-01-08T04:05:18.657Z,43.23
2023-01-08T04:06:18.664Z,41.28
2023-01-08T04:07:18.642Z,44.43
2023-01-08T04:08:18.632Z,43.56
2023-01-08T04:09:18.735Z,44.91
2023-01-08T04:10:18.613Z,54.28
2023-01-08T04:11:18.607Z,44.40
2023-01-08T04:12:18.607Z,41.76
2023-01-08T04:13:18.619Z,41.31
2023-01-08T04:14:18.604Z,41.40
2023-01-08T04:15:19.581Z,43.34
2023-01-08T04:16:18.620Z,45.48
2023-01-08T04:17:18.561Z,55.61
2023-01-08T04:18:18.550Z,45.97
2023-01-08T04:19:18.587Z,48.42
2023-01-08T04:20:18.543Z,43.15
2023-01-08T04:21:18.537Z,44.01
2023-01-08T04:22:18.519Z,45.29
2023-01-08T04:23:18.519Z,50.57
2023-01-08T04:24:18.523Z,43.62
2023-01-08T04:25:18.498Z,43.48
2023-01-08T04:26:18.495Z,50.93
2023-01-08T04:27:18.476Z,42.63
2023-01-08T04:28:19.483Z,42.41
2023-01-08T04:29:50.407Z,44.51
2023-01-08T04:30:18.453Z,41.69
2023-01-08T04:31:18.518Z,44.39
2023-01-08T04:32:18.437Z,44.12
2023-01-08T04:33:18.465Z,46.26
2023-01-08T04:34:18.450Z,45.43
2023-01-08T04:35:18.425Z,48.58
2023-01-08T04:36:18.437Z,46.95
2023-01-08T04:37:18.405Z,41.38
2023-01-08T04:38:18.407Z,44.24
2023-01-08T04:39:18.412Z,46.29
2023-01-08T04:40:18.405Z,42.75
2023-01-08T04:41:18.479Z,44.17
2023-01-08T04:42:18.362Z,44.12
2023-01-08T04:43:18.351Z,45.03
2023-01-08T04:44:18.377Z,43.28
2023-01-08T04:45:18.346Z,51.25
2023-01-08T04:46:18.379Z,44.64
2023-01-08T04:47:18.353Z,47.46
2023-01-08T04:48:18.325Z,43.28
2023-01-08T04:49:18.343Z,42.90
2023-01-08T04:50:18.303Z,49.34
2023-01-08T04:51:18.296Z,44.69
2023-01-08T04:52:18.295Z,42.37
2023-01-08T04:53:18.271Z,45.23
2023-01-08T04:54:18.300Z,44.56
2023-01-08T04:55:18.264Z,58.88
2023-01-08T04:56:18.263Z,46.77
2023-01-08T04:57:18.244Z,45.91
2023-01-08T04:58:18.246Z,41.33
2023-01-08T04:59:18.251Z,41.31
2023-01-08T05:00:18.238Z,41.27
2023-01-08T05:01:18.346Z,44.59
2023-01-08T05:02:18.356Z,43.77
2023-01-08T05:03:18.282Z,45.50
2023-01-08T05:04:18.217Z,46.49
2023-01-08T05:05:18.201Z,44.40
2023-01-08T05:06:18.189Z,49.23
2023-01-08T05:07:18.177Z,42.87
2023-01-08T05:08:18.161Z,44.26
2023-01-08T05:09:18.182Z,41.82
2023-01-08T05:10:18.207Z,46.96
2023-01-08T05:11:18.144Z,41.74
2023-01-08T05:12:18.133Z,43.36
2023-01-08T05:13:18.200Z,42.28
2023-01-08T05:14:18.139Z,45.89
2023-01-08T05:15:18.114Z,56.71
2023-01-08T05:16:18.141Z,45.37
2023-01-08T05:17:18.103Z,44.66
2023-01-08T05:18:18.111Z,44.16
2023-01-08T05:19:18.082Z,44.89
2023-01-08T05:20:19.146Z,43.57
2023-01-08T05:21:19.083Z,46.60
2023-01-08T05:22:18.058Z,45.36
2023-01-08T05:23:18.051Z,45.20
2023-01-08T05:24:18.048Z,47.32
2023-01-08T05:25:18.056Z,45.15
2023-01-08T05:26:18.025Z,48.33
2023-01-08T05:27:18.041Z,42.46
2023-01-08T05:28:18.025Z,44.16
2023-01-08T05:29:18.084Z,44.42
2023-01-08T05:30:18.038Z,45.00
2023-01-08T05:31:18.064Z,45.60
2023-01-08T05:32:17.985Z,42.77
2023-01-08T05:33:17.984Z,44.74
2023-01-08T05:34:17.967Z,46.48
2023-01-08T05:35:17.978Z,44.41
2023-01-08T05:36:17.959Z,49.02
2023-01-08T05:37:17.951Z,45.69
2023-01-08T05:38:17.935Z,48.02
2023-01-08T05:39:17.938Z,42.63
2023-01-08T05:40:17.957Z,47.04
2023-01-08T05:41:17.921Z,49.25
2023-01-08T05:42:17.958Z,45.38
2023-01-08T05:43:17.902Z,48.20
2023-01-08T05:44:17.890Z,53.00
2023-01-08T05:45:18.020Z,44.39
2023-01-08T05:46:17.952Z,43.84
2023-01-08T05:47:17.876Z,48.96
2023-01-08T05:48:17.877Z,46.59
2023-01-08T05:49:17.856Z,46.44
2023-01-08T05:50:17.871Z,48.84
2023-01-08T05:51:17.851Z,46.61
2023-01-08T05:52:17.834Z,45.75
2023-01-08T05:53:17.830Z,46.37
2023-01-08T05:54:17.845Z,53.38
2023-01-08T05:55:17.811Z,45.08
2023-01-08T05:56:17.798Z,41.67
2023-01-08T05:57:17.817Z,46.86
2023-01-08T05:58:17.786Z,48.77
2023-01-08T05:59:17.804Z,54.91
2023-01-08T06:00:17.777Z,43.71
2023-01-08T06:01:17.921Z,43.38
2023-01-08T06:02:17.762Z,54.91
2023-01-08T06:03:17.776Z,44.95
2023-01-08T06:04:18.176Z,41.46
2023-01-08T06:05:17.729Z,44.75
2023-01-08T06:06:17.735Z,44.81
2023-01-08T06:07:17.714Z,46.37
2023-01-08T06:08:17.696Z,42.69
2023-01-08T06:09:17.728Z,46.16
2023-01-08T06:10:17.704Z,41.60
2023-01-08T06:11:17.675Z,44.11
2023-01-08T06:12:17.673Z,49.72
2023-01-08T06:13:17.665Z,44.87
2023-01-08T06:14:17.653Z,43.87
2023-01-08T06:15:17.687Z,42.01
2023-01-08T06:16:17.751Z,44.68
2023-01-08T06:17:18.708Z,43.76
2023-01-08T06:18:17.625Z,42.62
2023-01-08T06:19:17.616Z,41.18
2023-01-08T06:20:17.644Z,43.94
2023-01-08T06:21:17.606Z,44.21
2023-01-08T06:22:17.607Z,43.24
2023-01-08T06:23:17.583Z,46.22
2023-01-08T06:24:17.578Z,42.47
2023-01-08T06:25:17.596Z,49.33
2023-01-08T06:26:17.563Z,44.91
2023-01-08T06:27:17.557Z,47.31
2023-01-08T06:28:17.547Z,47.93
2023-01-08T06:29:17.540Z,46.27
2023-01-08T06:30:17.560Z,43.79
2023-01-08T06:31:17.529Z,42.01
2023-01-08T06:32:17.523Z,46.46
2023-01-08T06:33:19.596Z,45.47
2023-01-08T06:34:17.502Z,46.96
2023-01-08T06:35:17.526Z,41.79
2023-01-08T06:36:17.500Z,44.57
2023-01-08T06:37:17.490Z,45.01
2023-01-08T06:38:17.473Z,41.99
2023-01-08T06:39:17.464Z,44.61
2023-01-08T06:40:17.480Z,44.50
2023-01-08T06:41:17.450Z,55.02
2023-01-08T06:42:17.443Z,47.45
2023-01-08T06:43:17.453Z,52.82
2023-01-08T06:44:17.435Z,55.99
2023-01-08T06:45:17.458Z,62.54
2023-01-08T06:46:17.439Z,56.82
2023-01-08T06:47:17.406Z,56.35
2023-01-08T06:48:17.390Z,56.99
2023-01-08T06:49:17.487Z,57.27
2023-01-08T06:50:17.412Z,57.17
2023-01-08T06:51:17.392Z,57.50
2023-01-08T06:52:17.368Z,56.54
2023-01-08T06:53:17.355Z,56.04
2023-01-08T06:54:17.355Z,56.50
2023-01-08T06:55:17.372Z,55.97
2023-01-08T06:56:17.339Z,56.43
2023-01-08T06:57:17.328Z,56.34
2023-01-08T06:58:17.315Z,60.79
2023-01-08T06:59:17.308Z,55.84
2023-01-08T07:00:17.325Z,55.71
2023-01-08T07:01:17.473Z,56.33
2023-01-08T07:02:17.420Z,48.58
2023-01-08T07:03:17.282Z,44.04
2023-01-08T07:04:17.337Z,47.59
2023-01-08T07:05:17.363Z,47.05
2023-01-08T07:06:17.262Z,45.66
2023-01-08T07:07:17.253Z,45.62
2023-01-08T07:08:17.238Z,46.92
2023-01-08T07:09:17.241Z,43.56
2023-01-08T07:10:19.774Z,47.96
2023-01-08T07:11:17.218Z,45.63
2023-01-08T07:12:17.216Z,44.38
2023-01-08T07:13:17.200Z,45.98
2023-01-08T07:14:17.200Z,49.87
2023-01-08T07:15:17.217Z,46.85
2023-01-08T07:16:17.231Z,44.66
2023-01-08T07:17:17.166Z,45.78
2023-01-08T07:18:17.161Z,42.94
2023-01-08T07:19:17.153Z,47.73
2023-01-08T07:20:17.164Z,53.86
2023-01-08T07:21:17.228Z,49.95
2023-01-08T07:22:17.129Z,49.07
2023-01-08T07:23:17.121Z,48.46
2023-01-08T07:24:17.107Z,49.62
2023-01-08T07:25:17.123Z,51.73
2023-01-08T07:26:17.094Z,50.43
2023-01-08T07:27:17.087Z,50.07
2023-01-08T07:28:17.095Z,49.44
2023-01-08T07:29:17.091Z,60.14
2023-01-08T07:30:28.634Z,48.01
2023-01-08T07:31:19.121Z,47.58
2023-01-08T07:32:17.059Z,50.18
2023-01-08T07:33:17.056Z,47.14
2023-01-08T07:34:17.041Z,56.83
2023-01-08T07:35:17.062Z,46.16
2023-01-08T07:36:17.030Z,49.60
2023-01-08T07:37:17.098Z,51.02
2023-01-08T07:38:17.006Z,49.67
2023-01-08T07:39:16.998Z,49.66
2023-01-08T07:40:17.029Z,50.51
2023-01-08T07:41:16.991Z,46.85
2023-01-08T07:42:16.985Z,48.74
2023-01-08T07:43:16.979Z,51.11
2023-01-08T07:44:16.964Z,48.78
2023-01-08T07:45:16.973Z,44.75
2023-01-08T07:46:17.005Z,47.05
2023-01-08T07:47:16.931Z,49.47
2023-01-08T07:48:16.929Z,44.33
2023-01-08T07:49:16.925Z,47.91
2023-01-08T07:50:16.938Z,47.23
2023-01-08T07:51:16.916Z,49.67
2023-01-08T07:52:16.904Z,50.26
2023-01-08T07:53:16.968Z,46.08
2023-01-08T07:54:16.884Z,49.71
2023-01-08T07:55:16.905Z,43.07
2023-01-08T07:56:16.864Z,50.02
2023-01-08T07:57:16.863Z,50.53
2023-01-08T07:58:16.867Z,47.16
2023-01-08T07:59:16.850Z,48.45
2023-01-08T08:00:16.868Z,45.52
2023-01-08T08:01:16.893Z,43.07
2023-01-08T08:02:16.957Z,49.15
2023-01-08T08:03:16.855Z,46.95
2023-01-08T08:04:16.826Z,45.34
2023-01-08T08:05:16.827Z,49.14
2023-01-08T08:06:16.801Z,46.54
2023-01-08T08:07:16.777Z,50.52
2023-01-08T08:08:16.776Z,47.91
2023-01-08T08:09:16.844Z,52.53
2023-01-08T08:10:16.784Z,50.09
2023-01-08T08:11:16.748Z,48.24
2023-01-08T08:12:16.740Z,51.26
2023-01-08T08:13:16.737Z,51.88
2023-01-08T08:14:16.752Z,54.47
2023-01-08T08:15:16.745Z,52.32
2023-01-08T08:16:16.746Z,53.58
2023-01-08T08:17:16.710Z,50.56
2023-01-08T08:18:16.699Z,52.76
2023-01-08T08:19:16.685Z,57.87
2023-01-08T08:20:16.717Z,51.48
2023-01-08T08:21:16.667Z,54.62
2023-01-08T08:22:16.666Z,49.17
2023-01-08T08:23:16.657Z,55.86
2023-01-08T08:24:16.667Z,49.68
2023-01-08T08:25:16.751Z,50.07
2023-01-08T08:26:16.645Z,49.67
2023-01-08T08:27:16.634Z,52.38
2023-01-08T08:28:16.681Z,47.22
2023-01-08T08:29:16.616Z,51.56
2023-01-08T08:30:16.624Z,49.11
2023-01-08T08:31:16.682Z,48.19
2023-01-08T08:32:16.593Z,59.83
2023-01-08T08:33:16.581Z,48.99
2023-01-08T08:34:16.602Z,48.73
2023-01-08T08:35:16.597Z,47.25
2023-01-08T08:36:16.561Z,48.60
2023-01-08T08:37:16.553Z,51.07
2023-01-08T08:38:16.549Z,52.12
2023-01-08T08:39:16.539Z,50.58
2023-01-08T08:40:16.557Z,51.93
2023-01-08T08:41:16.595Z,53.84
2023-01-08T08:42:16.520Z,47.89
2023-01-08T08:43:16.508Z,49.92
2023-01-08T08:44:16.507Z,52.28
2023-01-08T08:45:16.543Z,49.58
2023-01-08T08:46:16.528Z,51.97
2023-01-08T08:47:16.476Z,51.64
2023-01-08T08:48:16.466Z,51.38
2023-01-08T08:49:16.463Z,51.49
2023-01-08T08:50:16.524Z,49.41
2023-01-08T08:51:16.445Z,49.91
2023-01-08T08:52:16.442Z,51.40
2023-01-08T08:53:16.429Z,50.14
2023-01-08T08:54:16.422Z,49.79
2023-01-08T08:55:16.452Z,50.85
2023-01-08T08:56:16.420Z,49.59
2023-01-08T08:57:16.469Z,51.12
2023-01-08T08:58:16.393Z,50.82
2023-01-08T08:59:16.391Z,54.25
2023-01-08T09:00:16.438Z,53.70
2023-01-08T09:01:16.513Z,51.59
2023-01-08T09:02:16.621Z,53.52
2023-01-08T09:03:16.459Z,50.60
2023-01-08T09:04:16.349Z,54.36
2023-01-08T09:05:16.369Z,53.92
2023-01-08T09:06:16.338Z,53.56
2023-01-08T09:07:16.345Z,52.99
2023-01-08T09:08:16.320Z,54.67
2023-01-08T09:09:16.315Z,49.40
2023-01-08T09:10:16.353Z,49.75
2023-01-08T09:11:16.302Z,55.04
2023-01-08T09:12:16.282Z,50.84
2023-01-08T09:13:16.371Z,48.97
2023-01-08T09:14:16.276Z,52.90
2023-01-08T09:15:16.295Z,49.53
2023-01-08T09:16:16.277Z,49.54
2023-01-08T09:17:16.248Z,46.69
2023-01-08T09:18:16.252Z,51.39
2023-01-08T09:19:16.253Z,51.53
2023-01-08T09:20:16.229Z,50.73
2023-01-08T09:21:16.252Z,54.82
2023-01-08T09:22:16.215Z,51.17
2023-01-08T09:23:16.209Z,52.71
2023-01-08T09:24:16.215Z,49.87
2023-01-08T09:25:16.196Z,60.92
2023-01-08T09:26:16.231Z,52.74
2023-01-08T09:27:16.174Z,54.60
2023-01-08T09:28:16.171Z,51.76
2023-01-08T09:29:16.237Z,50.57
2023-01-08T09:30:16.144Z,59.50
2023-01-08T09:31:16.219Z,53.16
2023-01-08T09:32:16.138Z,55.15
2023-01-08T09:33:16.157Z,51.76
2023-01-08T09:34:16.117Z,51.86
2023-01-08T09:35:16.112Z,53.33
2023-01-08T09:36:16.129Z,56.80
2023-01-08T09:37:16.108Z,51.57
2023-01-08T09:38:16.100Z,48.32
2023-01-08T09:39:16.088Z,48.60
2023-01-08T09:40:16.080Z,49.50
2023-01-08T09:41:16.088Z,48.95
2023-01-08T09:42:16.067Z,51.07
2023-01-08T09:43:16.058Z,51.24
2023-01-08T09:44:16.085Z,55.19
2023-01-08T09:45:16.126Z,56.00
2023-01-08T09:46:16.102Z,56.23
2023-01-08T09:47:16.026Z,54.46
2023-01-08T09:48:16.085Z,54.21
2023-01-08T09:49:16.005Z,47.67
2023-01-08T09:50:18.255Z,51.38
2023-01-08T09:51:16.124Z,49.60
2023-01-08T09:52:16.094Z,51.50
2023-01-08T09:53:16.019Z,56.50
2023-01-08T09:54:16.028Z,49.86
2023-01-08T09:55:16.003Z,53.56
2023-01-08T09:56:16.713Z,51.44
2023-01-08T09:57:15.999Z,51.35
2023-01-08T09:58:16.002Z,54.55
2023-01-08T09:59:16.005Z,55.09
2023-01-08T10:00:15.989Z,52.79
2023-01-08T10:01:16.269Z,56.12
2023-01-08T10:02:16.306Z,48.28
2023-01-08T10:03:15.952Z,49.61
2023-01-08T10:04:16.013Z,53.72
2023-01-08T10:05:16.025Z,51.35
2023-01-08T10:06:15.988Z,53.23
2023-01-08T10:07:16.076Z,54.81
2023-01-08T10:08:16.130Z,53.91
2023-01-08T10:09:16.046Z,51.25
2023-01-08T10:10:15.970Z,54.07
2023-01-08T10:11:15.911Z,54.29
2023-01-08T10:12:15.892Z,51.83
2023-01-08T10:13:15.865Z,54.45
2023-01-08T10:14:15.919Z,54.95
2023-01-08T10:15:15.871Z,49.59
2023-01-08T10:16:15.929Z,49.60
2023-01-08T10:17:16.021Z,49.48
2023-01-08T10:18:15.926Z,51.78
2023-01-08T10:19:15.851Z,60.22
2023-01-08T10:20:15.854Z,56.39
2023-01-08T10:21:16.137Z,55.54
2023-01-08T10:22:15.859Z,54.38
2023-01-08T10:23:15.849Z,53.74
2023-01-08T10:24:15.929Z,53.12
2023-01-08T10:25:15.851Z,58.74
2023-01-08T10:26:15.782Z,59.26
2023-01-08T10:27:15.996Z,57.48
2023-01-08T10:28:15.813Z,53.62
2023-01-08T10:29:16.000Z,53.79
2023-01-08T10:30:50.718Z,54.71
2023-01-08T10:31:15.728Z,53.52
2023-01-08T10:32:15.729Z,54.47
2023-01-08T10:33:15.679Z,61.02
2023-01-08T10:34:15.766Z,55.85
2023-01-08T10:35:15.766Z,54.14
2023-01-08T10:36:15.703Z,56.66
2023-01-08T10:37:15.663Z,51.62
2023-01-08T10:38:15.635Z,57.71
2023-01-08T10:39:15.829Z,54.88
2023-01-08T10:40:15.619Z,55.24
2023-01-08T10:41:15.610Z,57.17
2023-01-08T10:42:16.708Z,51.13
2023-01-08T10:43:15.614Z,54.72
2023-01-08T10:44:15.585Z,55.70
2023-01-08T10:45:15.579Z,55.55
2023-01-08T10:46:15.608Z,58.52
2023-01-08T10:47:15.618Z,65.49
2023-01-08T10:48:15.645Z,74.31
2023-01-08T10:49:15.608Z,85.94
2023-01-08T10:50:15.550Z,85.60
2023-01-08T10:51:15.544Z,85.89
2023-01-08T10:52:15.622Z,66.64
2023-01-08T10:53:15.572Z,60.15
2023-01-08T10:54:15.536Z,57.58
2023-01-08T10:55:15.591Z,58.27
2023-01-08T10:56:15.693Z,59.32
2023-01-08T10:57:15.959Z,65.10
2023-01-08T10:58:15.531Z,55.86
2023-01-08T10:59:15.518Z,56.79
2023-01-08T11:00:15.510Z,59.88
2023-01-08T11:01:15.580Z,60.63
2023-01-08T11:02:15.545Z,60.16
2023-01-08T11:03:15.472Z,64.79
2023-01-08T11:04:15.499Z,64.43
2023-01-08T11:05:15.463Z,64.52
2023-01-08T11:06:15.497Z,65.62
2023-01-08T11:07:15.481Z,60.30
2023-01-08T11:08:15.412Z,61.42
2023-01-08T11:09:15.433Z,58.02
2023-01-08T11:10:15.436Z,57.95
2023-01-08T11:11:15.619Z,57.85
2023-01-08T11:12:15.445Z,60.05
2023-01-08T11:13:15.391Z,57.49
2023-01-08T11:14:15.468Z,56.71
2023-01-08T11:15:15.483Z,59.05
2023-01-08T11:16:15.377Z,56.53
2023-01-08T11:17:15.405Z,55.07
2023-01-08T11:18:15.366Z,52.47
2023-01-08T11:19:15.357Z,56.54
2023-01-08T11:20:15.375Z,57.15
2023-01-08T11:21:15.359Z,58.86
2023-01-08T11:22:15.454Z,59.02
2023-01-08T11:23:15.316Z,58.47
2023-01-08T11:24:15.318Z,63.16
2023-01-08T11:25:15.305Z,58.88
2023-01-08T11:26:15.289Z,58.47
2023-01-08T11:27:15.313Z,59.78
2023-01-08T11:28:15.428Z,60.69
2023-01-08T11:29:15.260Z,55.77
2023-01-08T11:30:15.263Z,56.32
2023-01-08T11:31:15.332Z,61.83
2023-01-08T11:32:15.264Z,59.45
2023-01-08T11:33:15.229Z,59.15
2023-01-08T11:34:15.224Z,59.77
2023-01-08T11:35:15.207Z,53.95
2023-01-08T11:36:15.190Z,55.19
2023-01-08T11:37:15.221Z,59.49
2023-01-08T11:38:15.177Z,60.04
2023-01-08T11:39:15.197Z,57.05
2023-01-08T11:40:15.207Z,56.68
2023-01-08T11:41:15.223Z,54.30
2023-01-08T11:42:15.202Z,58.85
2023-01-08T11:43:15.164Z,58.66
2023-01-08T11:44:15.147Z,52.65
2023-01-08T11:45:15.140Z,50.34
2023-01-08T11:46:15.132Z,53.60
2023-01-08T11:47:15.146Z,55.15
2023-01-08T11:48:15.114Z,55.60
2023-01-08T11:49:15.112Z,47.48
2023-01-08T11:50:15.118Z,52.99
2023-01-08T11:51:15.110Z,55.57
2023-01-08T11:52:15.100Z,53.07
2023-01-08T11:53:15.080Z,48.44
2023-01-08T11:54:15.057Z,50.77
2023-01-08T11:55:15.059Z,55.05
2023-01-08T11:56:15.077Z,50.22
2023-01-08T11:57:15.092Z,53.45
2023-01-08T11:58:15.066Z,52.13
2023-01-08T11:59:15.036Z,52.44
2023-01-08T12:00:15.014Z,52.52
2023-01-08T12:01:15.055Z,52.34
2023-01-08T12:02:15.041Z,56.51
2023-01-08T12:03:15.074Z,56.17
2023-01-08T12:04:15.014Z,52.99
2023-01-08T12:05:14.970Z,50.89
2023-01-08T12:06:15.046Z,48.72
2023-01-08T12:07:14.980Z,55.37
2023-01-08T12:08:14.973Z,51.35
2023-01-08T12:09:14.964Z,54.15
2023-01-08T12:10:14.938Z,52.62
2023-01-08T12:11:14.957Z,49.25
2023-01-08T12:12:15.212Z,53.83
2023-01-08T12:13:15.914Z,50.56
2023-01-08T12:14:14.912Z,50.45
2023-01-08T12:15:14.915Z,53.06
2023-01-08T12:16:14.925Z,52.03
2023-01-08T12:17:14.915Z,48.32
2023-01-08T12:18:14.880Z,56.26
2023-01-08T12:19:14.871Z,51.47
2023-01-08T12:20:14.863Z,51.20
2023-01-08T12:21:14.845Z,55.03
2023-01-08T12:22:14.885Z,54.54
2023-01-08T12:23:14.861Z,50.11
2023-01-08T12:24:14.846Z,52.74
2023-01-08T12:25:14.830Z,51.26
2023-01-08T12:26:14.812Z,51.38
2023-01-08T12:27:14.843Z,50.71
2023-01-08T12:28:14.813Z,50.43
2023-01-08T12:29:14.800Z,54.79
2023-01-08T12:30:14.811Z,50.86
2023-01-08T12:31:14.822Z,54.87
2023-01-08T12:32:14.799Z,50.90
2023-01-08T12:33:14.759Z,51.24
2023-01-08T12:34:14.773Z,60.20
2023-01-08T12:35:14.734Z,53.52
2023-01-08T12:36:14.766Z,53.95
2023-01-08T12:37:14.759Z,56.79
2023-01-08T12:38:14.736Z,51.21
2023-01-08T12:39:14.720Z,52.78
2023-01-08T12:40:14.749Z,50.11
2023-01-08T12:41:14.758Z,51.82
2023-01-08T12:42:14.687Z,53.17
2023-01-08T12:43:14.716Z,50.45
2023-01-08T12:44:14.685Z,53.48
2023-01-08T12:45:14.696Z,50.74
2023-01-08T12:46:14.762Z,55.94
2023-01-08T12:47:14.666Z,52.93
2023-01-08T12:48:14.659Z,54.53
2023-01-08T12:49:14.665Z,53.84
2023-01-08T12:50:14.635Z,53.85
2023-01-08T12:51:14.668Z,47.12
2023-01-08T12:52:14.623Z,52.00